createdAt,value
2023-02-05T00:00:41.000Z,11
2023-02-05T00:01:58.000Z,8.7
2023-02-05T00:03:14.000Z,11.3
2023-02-05T00:04:29.000Z,12.1
2023-02-05T00:05:45.000Z,9.8
2023-02-05T00:07:02.000Z,11.5
2023-02-05T00:08:18.000Z,8.6
2023-02-05T00:09:34.000Z,10.9
2023-02-05T00:10:50.000Z,10.8
2023-02-05T00:12:06.000Z,8.9
2023-02-05T00:13:22.000Z,14.5
2023-02-05T00:14:37.000Z,12.7
2023-02-05T00:15:52.000Z,13.1
2023-02-05T00:17:08.000Z,11.7
2023-02-05T00:18:24.000Z,15.7
2023-02-05T00:19:40.000Z,12
2023-02-05T00:20:56.000Z,12.5
2023-02-05T00:22:12.000Z,12.7
2023-02-05T00:23:29.000Z,11.6
2023-02-05T00:24:45.000Z,11
2023-02-05T00:26:01.000Z,9.8
2023-02-05T00:27:17.000Z,13.5
2023-02-05T00:28:34.000Z,12
2023-02-05T00:29:50.000Z,12.4
2023-02-05T00:31:06.000Z,11.7
2023-02-05T00:32:22.000Z,15.6
2023-02-05T00:33:39.000Z,13
2023-02-05T00:34:54.000Z,11.8
2023-02-05T00:36:10.000Z,15.5
2023-02-05T00:37:26.000Z,13.4
2023-02-05T00:38:42.000Z,8.2
2023-02-05T00:39:59.000Z,12.1
2023-02-05T00:41:15.000Z,10.8
2023-02-05T00:42:30.000Z,8.7
2023-02-05T00:43:45.000Z,10.9
2023-02-05T00:45:02.000Z,12
2023-02-05T00:46:18.000Z,13.9
2023-02-05T00:47:34.000Z,9.9
2023-02-05T00:48:49.000Z,14
2023-02-05T00:50:05.000Z,6.9
2023-02-05T00:51:21.000Z,9.8
2023-02-05T00:52:37.000Z,10.2
2023-02-05T00:53:53.000Z,16
2023-02-05T00:55:10.000Z,10.2
2023-02-05T00:56:26.000Z,18.3
2023-02-05T00:57:42.000Z,9.4
2023-02-05T00:58:58.000Z,14.7
2023-02-05T01:00:15.000Z,12.1
2023-02-05T01:01:31.000Z,11.4
2023-02-05T01:02:47.000Z,12.5
2023-02-05T01:04:03.000Z,15.9
2023-02-05T01:05:20.000Z,15
2023-02-05T01:06:35.000Z,11.8
2023-02-05T01:07:51.000Z,8.1
2023-02-05T01:09:07.000Z,11.6
2023-02-05T01:10:23.000Z,13.2
2023-02-05T01:11:40.000Z,7.7
2023-02-05T01:12:56.000Z,13.1
2023-02-05T01:14:12.000Z,9.3
2023-02-05T01:15:27.000Z,10.3
2023-02-05T01:16:43.000Z,12.4
2023-02-05T01:17:59.000Z,10
2023-02-05T01:19:15.000Z,13.5
2023-02-05T01:20:31.000Z,13.5
2023-02-05T01:21:48.000Z,11.5
2023-02-05T01:23:03.000Z,10.9
2023-02-05T01:24:19.000Z,10.3
2023-02-05T01:25:34.000Z,10.1
2023-02-05T01:26:51.000Z,12.7
2023-02-05T01:28:07.000Z,9.9
2023-02-05T01:29:23.000Z,13.9
2023-02-05T01:30:39.000Z,8.9
2023-02-05T01:31:56.000Z,12.5
2023-02-05T01:33:12.000Z,8.3
2023-02-05T01:34:28.000Z,11.9
2023-02-05T01:35:44.000Z,19
2023-02-05T01:37:00.000Z,14.1
2023-02-05T01:38:17.000Z,8
2023-02-05T01:39:33.000Z,10.3
2023-02-05T01:40:49.000Z,13.8
2023-02-05T01:42:04.000Z,10.6
2023-02-05T01:43:21.000Z,12.2
2023-02-05T01:44:37.000Z,10.4
2023-02-05T01:45:53.000Z,8.2
2023-02-05T01:47:09.000Z,12.3
2023-02-05T01:48:26.000Z,14.3
2023-02-05T01:49:41.000Z,9.1
2023-02-05T01:50:56.000Z,11.9
2023-02-05T01:52:11.000Z,10.3
2023-02-05T01:53:27.000Z,10.7
2023-02-05T01:54:43.000Z,9
2023-02-05T01:55:59.000Z,12.9
2023-02-05T01:57:15.000Z,12.4
2023-02-05T01:58:32.000Z,8
2023-02-05T01:59:48.000Z,10.1
2023-02-05T02:01:04.000Z,12.2
2023-02-05T02:02:20.000Z,10.7
2023-02-05T02:03:37.000Z,9.6
2023-02-05T02:04:53.000Z,14
2023-02-05T02:06:09.000Z,8.9
2023-02-05T02:07:25.000Z,12.1
2023-02-05T02:08:41.000Z,10.9
2023-02-05T02:09:57.000Z,9.4
2023-02-05T02:11:13.000Z,14.6
2023-02-05T02:12:29.000Z,9.8
2023-02-05T02:13:45.000Z,10.8
2023-02-05T02:15:02.000Z,11.2
2023-02-05T02:16:18.000Z,9.9
2023-02-05T02:17:34.000Z,12.5
2023-02-05T02:18:49.000Z,12.3
2023-02-05T02:20:05.000Z,12.5
2023-02-05T02:21:20.000Z,10.2
2023-02-05T02:22:35.000Z,11.4
2023-02-05T02:23:51.000Z,11.9
2023-02-05T02:25:08.000Z,11.2
2023-02-05T02:27:40.000Z,10.4
2023-02-05T02:28:56.000Z,13.4
2023-02-05T02:30:13.000Z,9.4
2023-02-05T02:31:29.000Z,13.5
2023-02-05T02:32:45.000Z,7.8
2023-02-05T02:34:01.000Z,12
2023-02-05T02:35:17.000Z,12.4
2023-02-05T02:36:34.000Z,8.9
2023-02-05T02:37:50.000Z,6.9
2023-02-05T02:39:05.000Z,8.1
2023-02-05T02:40:21.000Z,12.1
2023-02-05T02:41:38.000Z,8.1
2023-02-05T02:42:54.000Z,8.5
2023-02-05T02:44:10.000Z,8.9
2023-02-05T02:45:26.000Z,11.5
2023-02-05T02:46:43.000Z,10
2023-02-05T02:47:59.000Z,8.8
2023-02-05T02:49:14.000Z,9.2
2023-02-05T02:50:29.000Z,9.4
2023-02-05T02:51:45.000Z,10.2
2023-02-05T02:53:01.000Z,9.1
2023-02-05T02:54:16.000Z,10.5
2023-02-05T02:55:32.000Z,9.1
2023-02-05T02:56:49.000Z,10.3
2023-02-05T02:58:05.000Z,8.4
2023-02-05T02:59:21.000Z,10.1
2023-02-05T03:00:37.000Z,9.5
2023-02-05T03:01:54.000Z,8.7
2023-02-05T03:03:10.000Z,16.6
2023-02-05T03:04:26.000Z,10.7
2023-02-05T03:05:42.000Z,13.8
2023-02-05T03:06:58.000Z,17.8
2023-02-05T03:08:15.000Z,14.7
2023-02-05T03:09:31.000Z,13.8
2023-02-05T03:10:46.000Z,20.5
2023-02-05T03:12:02.000Z,9.5
2023-02-05T03:13:19.000Z,14.1
2023-02-05T03:14:35.000Z,9.7
2023-02-05T03:15:51.000Z,17.5
2023-02-05T03:17:07.000Z,14.5
2023-02-05T03:18:24.000Z,15.3
2023-02-05T03:19:39.000Z,10.1
2023-02-05T03:20:54.000Z,13.6
2023-02-05T03:22:09.000Z,13.1
2023-02-05T03:23:25.000Z,17.4
2023-02-05T03:24:41.000Z,13.4
2023-02-05T03:25:57.000Z,14.9
2023-02-05T03:27:13.000Z,18.5
2023-02-05T03:28:30.000Z,18.1
2023-02-05T03:31:02.000Z,15.2
2023-02-05T03:32:18.000Z,19.8
2023-02-05T03:33:34.000Z,20.1
2023-02-05T03:34:51.000Z,17.1
2023-02-05T03:36:06.000Z,16.5
2023-02-05T03:37:22.000Z,14.3
2023-02-05T03:38:38.000Z,16.5
2023-02-05T03:39:55.000Z,11
2023-02-05T03:41:11.000Z,21.8
2023-02-05T03:42:27.000Z,21.4
2023-02-05T03:43:43.000Z,12.4
2023-02-05T03:46:16.000Z,19.1
2023-02-05T03:47:31.000Z,15.8
2023-02-05T03:48:46.000Z,11.3
2023-02-05T03:50:03.000Z,28.8
2023-02-05T03:51:19.000Z,22
2023-02-05T03:52:35.000Z,21.1
2023-02-05T03:53:51.000Z,16.7
2023-02-05T03:55:08.000Z,19.1
2023-02-05T03:56:24.000Z,14.8
2023-02-05T03:57:40.000Z,18.1
2023-02-05T03:58:56.000Z,17.5
2023-02-05T04:00:12.000Z,19.9
2023-02-05T04:01:28.000Z,23.7
2023-02-05T04:02:43.000Z,20.5
2023-02-05T04:03:59.000Z,16.7
2023-02-05T04:05:15.000Z,19.1
2023-02-05T04:06:32.000Z,17
2023-02-05T04:09:04.000Z,16.1
2023-02-05T04:10:20.000Z,22.2
2023-02-05T04:11:37.000Z,20.6
2023-02-05T04:12:53.000Z,15.7
2023-02-05T04:14:09.000Z,15.4
2023-02-05T04:15:25.000Z,19.4
2023-02-05T04:16:42.000Z,16.8
2023-02-05T04:17:58.000Z,12.9
2023-02-05T04:19:13.000Z,17.4
2023-02-05T04:20:29.000Z,19.6
2023-02-05T04:21:45.000Z,17.8
2023-02-05T04:23:02.000Z,12.5
2023-02-05T04:25:34.000Z,18.7
2023-02-05T04:26:49.000Z,14.3
2023-02-05T04:28:05.000Z,16.3
2023-02-05T04:29:21.000Z,15.7
2023-02-05T04:30:37.000Z,21.4
2023-02-05T04:31:53.000Z,20.1
2023-02-05T04:33:10.000Z,28.2
2023-02-05T04:34:26.000Z,29.7
2023-02-05T04:35:42.000Z,34.3
2023-02-05T04:36:58.000Z,21.1
2023-02-05T04:38:15.000Z,23.2
2023-02-05T04:39:31.000Z,20
2023-02-05T04:40:46.000Z,28.4
2023-02-05T04:42:01.000Z,14.9
2023-02-05T04:43:18.000Z,19.3
2023-02-05T04:44:34.000Z,27.3
2023-02-05T04:45:50.000Z,26.2
2023-02-05T04:47:06.000Z,28.5
2023-02-05T04:48:22.000Z,28
2023-02-05T04:49:39.000Z,24.9
2023-02-05T04:50:55.000Z,27.9
2023-02-05T04:52:11.000Z,28.7
2023-02-05T04:53:27.000Z,26.3
2023-02-05T04:54:44.000Z,18.8
2023-02-05T04:56:00.000Z,26.8
2023-02-05T04:57:16.000Z,28.6
2023-02-05T04:58:31.000Z,29.1
2023-02-05T04:59:48.000Z,33.2
2023-02-05T05:01:04.000Z,27.4
2023-02-05T05:02:20.000Z,38.3
2023-02-05T05:03:36.000Z,30.9
2023-02-05T05:04:53.000Z,28.6
2023-02-05T05:06:09.000Z,24.8
2023-02-05T05:07:25.000Z,33.3
2023-02-05T05:08:41.000Z,34.2
2023-02-05T05:09:57.000Z,37.1
2023-02-05T05:11:14.000Z,24.2
2023-02-05T05:12:30.000Z,25.9
2023-02-05T05:13:46.000Z,30.8
2023-02-05T05:15:01.000Z,29.1
2023-02-05T05:16:18.000Z,31.7
2023-02-05T05:17:34.000Z,34.7
2023-02-05T05:18:50.000Z,27.1
2023-02-05T05:20:06.000Z,26.9
2023-02-05T05:21:23.000Z,30.9
2023-02-05T05:22:39.000Z,33.8
2023-02-05T05:23:55.000Z,34.2
2023-02-05T05:25:11.000Z,36
2023-02-05T05:26:28.000Z,38.6
2023-02-05T05:27:44.000Z,26.7
2023-02-05T05:29:00.000Z,32.4
2023-02-05T05:30:16.000Z,30.3
2023-02-05T05:31:32.000Z,37.6
2023-02-05T05:32:48.000Z,21.5
2023-02-05T05:34:04.000Z,31.9
2023-02-05T05:35:20.000Z,37.5
2023-02-05T05:36:36.000Z,26.8
2023-02-05T05:37:53.000Z,45
2023-02-05T05:39:09.000Z,31.8
2023-02-05T05:40:25.000Z,33
2023-02-05T05:41:41.000Z,34.1
2023-02-05T05:42:58.000Z,34.8
2023-02-05T05:44:14.000Z,32
2023-02-05T05:45:30.000Z,36.3
2023-02-05T05:46:46.000Z,33.4
2023-02-05T05:48:03.000Z,32.1
2023-02-05T05:49:18.000Z,33.3
2023-02-05T05:50:34.000Z,34.4
2023-02-05T05:51:50.000Z,32.8
2023-02-05T05:53:06.000Z,34.9
2023-02-05T05:54:23.000Z,51.7
2023-02-05T05:55:39.000Z,35.4
2023-02-05T05:56:55.000Z,40.1
2023-02-05T05:58:11.000Z,45.4
2023-02-05T05:59:28.000Z,33
2023-02-05T06:00:44.000Z,40.5
2023-02-05T06:02:00.000Z,31.6
2023-02-05T06:03:16.000Z,44.7
2023-02-05T06:04:33.000Z,36.3
2023-02-05T06:05:48.000Z,33.3
2023-02-05T06:07:04.000Z,51.7
2023-02-05T06:08:20.000Z,41.3
2023-02-05T06:09:37.000Z,42.9
2023-02-05T06:10:53.000Z,36.1
2023-02-05T06:12:09.000Z,39.4
2023-02-05T06:13:25.000Z,42
2023-02-05T06:14:41.000Z,43.3
2023-02-05T06:15:58.000Z,44.3
2023-02-05T06:17:14.000Z,53.9
2023-02-05T06:18:30.000Z,53.5
2023-02-05T06:19:46.000Z,44.6
2023-02-05T06:21:03.000Z,45.4
2023-02-05T06:22:18.000Z,65.3
2023-02-05T06:23:34.000Z,51.9
2023-02-05T06:24:50.000Z,58.7
2023-02-05T06:26:07.000Z,55.1
2023-02-05T06:27:23.000Z,58.9
2023-02-05T06:28:39.000Z,54.7
2023-02-05T06:29:55.000Z,56.3
2023-02-05T06:31:12.000Z,59.9
2023-02-05T06:32:28.000Z,55.7
2023-02-05T06:33:44.000Z,44.1
2023-02-05T06:35:00.000Z,47.1
2023-02-05T06:36:16.000Z,53.6
2023-02-05T06:37:33.000Z,60.9
2023-02-05T06:38:48.000Z,50.1
2023-02-05T06:40:04.000Z,47.6
2023-02-05T06:41:20.000Z,62.1
2023-02-05T06:42:37.000Z,56
2023-02-05T06:43:53.000Z,57.4
2023-02-05T06:45:09.000Z,51.9
2023-02-05T06:46:25.000Z,66.1
2023-02-05T06:47:42.000Z,65.2
2023-02-05T06:48:58.000Z,62.2
2023-02-05T06:50:14.000Z,63.2
2023-02-05T06:51:30.000Z,69
2023-02-05T06:52:47.000Z,55
2023-02-05T06:54:03.000Z,54.8
2023-02-05T06:55:18.000Z,60.1
2023-02-05T06:56:34.000Z,81.7
2023-02-05T06:57:50.000Z,66.9
2023-02-05T06:59:07.000Z,61.5
2023-02-05T07:00:23.000Z,82
2023-02-05T07:01:39.000Z,85.2
2023-02-05T07:02:55.000Z,76.3
2023-02-05T07:04:12.000Z,76.6
2023-02-05T07:05:28.000Z,72.2
2023-02-05T07:06:44.000Z,87.4
2023-02-05T07:08:00.000Z,91.8
2023-02-05T07:09:17.000Z,84.5
2023-02-05T07:10:33.000Z,100.2
2023-02-05T07:11:48.000Z,99.8
2023-02-05T07:13:04.000Z,96.5
2023-02-05T07:14:21.000Z,90.5
2023-02-05T07:15:37.000Z,106.7
2023-02-05T07:16:53.000Z,87.3
2023-02-05T07:18:09.000Z,137.3
2023-02-05T07:19:25.000Z,104.7
2023-02-05T07:20:42.000Z,111.2
2023-02-05T07:21:58.000Z,113.3
2023-02-05T07:23:14.000Z,156.6
2023-02-05T07:24:30.000Z,115.7
2023-02-05T07:25:47.000Z,132
2023-02-05T07:27:03.000Z,129.2
2023-02-05T07:28:18.000Z,137.5
2023-02-05T07:29:34.000Z,159.7
2023-02-05T07:30:51.000Z,152.4
2023-02-05T07:32:07.000Z,144.2
2023-02-05T07:33:23.000Z,159.1
2023-02-05T07:34:39.000Z,157.7
2023-02-05T07:35:56.000Z,165.3
2023-02-05T07:37:12.000Z,138
2023-02-05T07:38:28.000Z,144.4
2023-02-05T07:39:44.000Z,146.2
2023-02-05T07:41:00.000Z,138
2023-02-05T07:42:17.000Z,144.5
2023-02-05T07:43:33.000Z,138.7
2023-02-05T07:44:48.000Z,155.6
2023-02-05T07:46:04.000Z,170.6
2023-02-05T07:47:21.000Z,192.3
2023-02-05T07:48:37.000Z,159.8
2023-02-05T07:49:53.000Z,181.8
2023-02-05T07:51:08.000Z,171.1
2023-02-05T07:52:25.000Z,170.7
2023-02-05T07:53:41.000Z,171.4
2023-02-05T07:54:57.000Z,167.1
2023-02-05T07:56:13.000Z,151.3
2023-02-05T07:57:30.000Z,162
2023-02-05T07:58:46.000Z,141.4
2023-02-05T08:00:02.000Z,114.1
2023-02-05T08:01:18.000Z,132
2023-02-05T08:02:34.000Z,108.9
2023-02-05T08:03:51.000Z,121.3
2023-02-05T08:05:07.000Z,113.1
2023-02-05T08:06:23.000Z,89
2023-02-05T08:07:38.000Z,94.6
2023-02-05T08:08:55.000Z,84.7
2023-02-05T08:10:11.000Z,44.5
2023-02-05T08:11:27.000Z,37.5
2023-02-05T08:12:43.000Z,40
2023-02-05T08:14:00.000Z,30.1
2023-02-05T08:15:16.000Z,21.9
2023-02-05T08:16:32.000Z,26.6
2023-02-05T08:17:48.000Z,22.7
2023-02-05T08:19:05.000Z,14.6
2023-02-05T08:20:21.000Z,28.9
2023-02-05T08:21:37.000Z,12.8
2023-02-05T08:22:53.000Z,17.5
2023-02-05T08:24:09.000Z,8
2023-02-05T08:25:25.000Z,8.8
2023-02-05T08:26:41.000Z,11.1
2023-02-05T08:27:57.000Z,7.1
2023-02-05T08:29:13.000Z,5.5
2023-02-05T08:30:30.000Z,5.9
2023-02-05T08:31:46.000Z,4.4
2023-02-05T08:33:02.000Z,5.6
2023-02-05T08:34:18.000Z,5.7
2023-02-05T08:35:35.000Z,4.7
2023-02-05T08:36:51.000Z,9.1
2023-02-05T08:38:07.000Z,5.4
2023-02-05T08:39:23.000Z,6.2
2023-02-05T08:40:39.000Z,4.7
2023-02-05T08:41:55.000Z,4.5
2023-02-05T08:43:11.000Z,7.4
2023-02-05T08:44:27.000Z,4.4
2023-02-05T08:45:43.000Z,3.7
2023-02-05T08:47:00.000Z,2.9
2023-02-05T08:48:16.000Z,3.6
2023-02-05T08:49:31.000Z,1.9
2023-02-05T08:50:46.000Z,4.7
2023-02-05T08:52:02.000Z,6.4
2023-02-05T08:53:17.000Z,2
2023-02-05T08:54:33.000Z,3.6
2023-02-05T08:55:49.000Z,1.6
2023-02-05T08:57:06.000Z,1.7
2023-02-05T08:58:22.000Z,2.1
2023-02-05T08:59:38.000Z,1.4
2023-02-05T09:00:54.000Z,3.7
2023-02-05T09:02:11.000Z,1.7
2023-02-05T09:03:27.000Z,3.2
2023-02-05T09:04:43.000Z,1.6
2023-02-05T09:05:59.000Z,2.1
2023-02-05T09:07:16.000Z,2.9
2023-02-05T09:08:32.000Z,0.9
2023-02-05T09:09:47.000Z,2.9
2023-02-05T09:11:03.000Z,6.6
2023-02-05T09:12:20.000Z,3.5
2023-02-05T09:13:36.000Z,1.5
2023-02-05T09:14:52.000Z,0.8
2023-02-05T09:16:08.000Z,3.5
2023-02-05T09:17:24.000Z,0.4
2023-02-05T09:18:40.000Z,4.5
2023-02-05T09:19:55.000Z,3
2023-02-05T09:21:11.000Z,3.2
2023-02-05T09:22:27.000Z,1.2
2023-02-05T09:23:44.000Z,1.7
2023-02-05T09:25:00.000Z,3.4
2023-02-05T09:26:16.000Z,0.3
2023-02-05T09:27:31.000Z,0.5
2023-02-05T09:28:47.000Z,3
2023-02-05T09:30:03.000Z,1.7
2023-02-05T09:31:19.000Z,0.6
2023-02-05T09:32:35.000Z,3.1
2023-02-05T09:33:52.000Z,0.2
2023-02-05T09:35:08.000Z,4
2023-02-05T09:36:24.000Z,0.2
2023-02-05T09:37:40.000Z,2.2
2023-02-05T09:38:57.000Z,1.6
2023-02-05T09:40:13.000Z,0.3
2023-02-05T09:41:29.000Z,1.5
2023-02-05T09:42:45.000Z,3.5
2023-02-05T09:44:01.000Z,0.3
2023-02-05T09:45:17.000Z,0.3
2023-02-05T09:46:33.000Z,1.3
2023-02-05T09:47:49.000Z,0.1
2023-02-05T09:49:05.000Z,3.3
2023-02-05T09:50:22.000Z,1.3
2023-02-05T09:51:38.000Z,1.1
2023-02-05T09:52:54.000Z,0.5
2023-02-05T09:54:09.000Z,2.7
2023-02-05T09:55:25.000Z,2.1
2023-02-05T09:56:40.000Z,0.1
2023-02-05T09:57:55.000Z,3.8
2023-02-05T09:59:11.000Z,0.2
2023-02-05T10:00:28.000Z,0.4
2023-02-05T10:01:44.000Z,4.6
2023-02-05T10:03:00.000Z,0.1
2023-02-05T10:04:16.000Z,0.6
2023-02-05T10:05:33.000Z,0.6
2023-02-05T10:06:49.000Z,0.3
2023-02-05T10:08:05.000Z,0.1
2023-02-05T10:09:21.000Z,4
2023-02-05T10:10:37.000Z,0.1
2023-02-05T10:11:54.000Z,6.2
2023-02-05T10:13:10.000Z,0.2
2023-02-05T10:14:25.000Z,0.2
2023-02-05T10:15:41.000Z,0.2
2023-02-05T10:16:58.000Z,5.7
2023-02-05T10:18:14.000Z,9.2
2023-02-05T10:19:30.000Z,0.3
2023-02-05T10:20:46.000Z,1.5
2023-02-05T10:22:03.000Z,0.3
2023-02-05T10:23:19.000Z,0.9
2023-02-05T10:24:35.000Z,0.2
2023-02-05T10:25:51.000Z,1.6
2023-02-05T10:27:08.000Z,2
2023-02-05T10:28:24.000Z,3.6
2023-02-05T10:29:40.000Z,3.1
2023-02-05T10:30:55.000Z,0.1
2023-02-05T10:32:11.000Z,1.8
2023-02-05T10:33:28.000Z,3.5
2023-02-05T10:34:44.000Z,4.3
2023-02-05T10:36:00.000Z,0.2
2023-02-05T10:37:16.000Z,0.2
2023-02-05T10:38:33.000Z,3.2
2023-02-05T10:39:49.000Z,0.3
2023-02-05T10:41:05.000Z,5
2023-02-05T10:42:21.000Z,0.6
2023-02-05T10:43:38.000Z,0.5
2023-02-05T10:44:54.000Z,0.2
2023-02-05T10:46:10.000Z,1
2023-02-05T10:47:25.000Z,0.9
2023-02-05T10:48:42.000Z,1
2023-02-05T10:49:58.000Z,0.6
2023-02-05T10:51:14.000Z,3.1
2023-02-05T10:52:30.000Z,0.1
2023-02-05T10:53:46.000Z,0.6
2023-02-05T10:55:03.000Z,0.2
2023-02-05T10:56:19.000Z,0.2
2023-02-05T10:57:35.000Z,0.4
2023-02-05T10:58:51.000Z,6.9
2023-02-05T11:00:08.000Z,1.5
2023-02-05T11:01:24.000Z,1.8
2023-02-05T11:02:40.000Z,1.8
2023-02-05T11:03:55.000Z,7.2
2023-02-05T11:05:12.000Z,9.5
2023-02-05T11:06:28.000Z,4.8
2023-02-05T11:07:44.000Z,1.1
2023-02-05T11:09:00.000Z,3.3
2023-02-05T11:10:17.000Z,0.4
2023-02-05T11:11:33.000Z,1.3
2023-02-05T11:12:49.000Z,10
2023-02-05T11:14:04.000Z,0.7
2023-02-05T11:15:20.000Z,8.8
2023-02-05T11:16:36.000Z,2.1
2023-02-05T11:17:52.000Z,2.5
2023-02-05T11:19:08.000Z,2
2023-02-05T11:20:24.000Z,2
2023-02-05T11:21:40.000Z,5.4
2023-02-05T11:22:55.000Z,2.9
2023-02-05T11:24:11.000Z,2.5
2023-02-05T11:25:27.000Z,5
2023-02-05T11:26:44.000Z,2.6
2023-02-05T11:28:00.000Z,3.9
2023-02-05T11:29:16.000Z,2
2023-02-05T11:30:32.000Z,0.8
2023-02-05T11:31:49.000Z,0.8
2023-02-05T11:33:05.000Z,4.5
2023-02-05T11:34:21.000Z,0.5
2023-02-05T11:35:37.000Z,8.1
2023-02-05T11:36:54.000Z,1
2023-02-05T11:38:10.000Z,2.6
2023-02-05T11:39:25.000Z,0.9
2023-02-05T11:40:41.000Z,3.6
2023-02-05T11:41:57.000Z,6.8
2023-02-05T11:43:14.000Z,2.5
2023-02-05T11:44:30.000Z,0.6
2023-02-05T11:45:46.000Z,1.3
2023-02-05T11:47:02.000Z,2.3
2023-02-05T11:48:19.000Z,0.8
2023-02-05T11:49:35.000Z,4.5
2023-02-05T11:50:50.000Z,2.2
2023-02-05T11:52:05.000Z,0.5
2023-02-05T11:53:22.000Z,1.9
2023-02-05T11:54:38.000Z,6.9
2023-02-05T11:55:54.000Z,1.6
2023-02-05T11:57:10.000Z,2
2023-02-05T11:58:27.000Z,1.2
2023-02-05T11:59:43.000Z,3.1
2023-02-05T12:00:58.000Z,2
2023-02-05T12:02:13.000Z,1
2023-02-05T12:03:30.000Z,0.5
2023-02-05T12:04:46.000Z,1.1
2023-02-05T12:06:01.000Z,0.5
2023-02-05T12:07:17.000Z,2.4
2023-02-05T12:08:34.000Z,1
2023-02-05T12:09:50.000Z,0.4
2023-02-05T12:11:06.000Z,0.7
2023-02-05T12:12:22.000Z,3.8
2023-02-05T12:13:38.000Z,1.9
2023-02-05T12:14:55.000Z,1
2023-02-05T12:16:11.000Z,0.8
2023-02-05T12:17:27.000Z,0.5
2023-02-05T12:18:43.000Z,0.6
2023-02-05T12:20:00.000Z,4.8
2023-02-05T12:21:16.000Z,2.2
2023-02-05T12:22:31.000Z,2.1
2023-02-05T12:23:47.000Z,2.3
2023-02-05T12:25:04.000Z,1.2
2023-02-05T12:26:20.000Z,2.3
2023-02-05T12:27:36.000Z,4.8
2023-02-05T12:28:52.000Z,6.7
2023-02-05T12:30:09.000Z,1.5
2023-02-05T12:31:25.000Z,0.9
2023-02-05T12:32:41.000Z,1.2
2023-02-05T12:33:57.000Z,1.3
2023-02-05T12:35:13.000Z,2.1
2023-02-05T12:36:30.000Z,1.4
2023-02-05T12:37:46.000Z,0.8
2023-02-05T12:39:01.000Z,1.4
2023-02-05T12:40:17.000Z,2.4
2023-02-05T12:41:34.000Z,2.7
2023-02-05T12:42:50.000Z,1.3
2023-02-05T12:44:06.000Z,1.6
2023-02-05T12:45:22.000Z,2
2023-02-05T12:46:39.000Z,1.2
2023-02-05T12:47:55.000Z,2.2
2023-02-05T12:49:11.000Z,3.2
2023-02-05T12:50:27.000Z,4.5
2023-02-05T12:51:44.000Z,5.5
2023-02-05T12:53:00.000Z,4.3
2023-02-05T12:54:16.000Z,3.5
2023-02-05T12:55:31.000Z,4.9
2023-02-05T12:56:47.000Z,4.1
2023-02-05T12:58:04.000Z,1.7
2023-02-05T12:59:20.000Z,3.8
2023-02-05T13:00:36.000Z,1.4
2023-02-05T13:01:52.000Z,4.1
2023-02-05T13:03:09.000Z,1.4
2023-02-05T13:04:25.000Z,2.2
2023-02-05T13:05:41.000Z,1.5
2023-02-05T13:06:56.000Z,1.7
2023-02-05T13:08:12.000Z,2.1
2023-02-05T13:09:28.000Z,6.7
2023-02-05T13:10:44.000Z,1.3
2023-02-05T13:12:00.000Z,5
2023-02-05T13:13:17.000Z,4.7
2023-02-05T13:14:33.000Z,4.2
2023-02-05T13:15:48.000Z,3.2
2023-02-05T13:17:03.000Z,3
2023-02-05T13:18:20.000Z,1.1
2023-02-05T13:19:36.000Z,6.9
2023-02-05T13:20:52.000Z,1.4
2023-02-05T13:22:08.000Z,10.8
2023-02-05T13:23:24.000Z,2.3
2023-02-05T13:24:41.000Z,8.2
2023-02-05T13:25:57.000Z,2.1
2023-02-05T13:27:13.000Z,2.2
2023-02-05T13:28:29.000Z,1.1
2023-02-05T13:29:46.000Z,4
2023-02-05T13:31:02.000Z,4.5
2023-02-05T13:32:18.000Z,7.8
2023-02-05T13:33:33.000Z,3.5
2023-02-05T13:34:50.000Z,6.3
2023-02-05T13:36:06.000Z,1.2
2023-02-05T13:37:22.000Z,7.5
2023-02-05T13:38:38.000Z,7.8
2023-02-05T13:39:55.000Z,7.4
2023-02-05T13:41:11.000Z,1.8
2023-02-05T13:42:27.000Z,2.2
2023-02-05T13:43:43.000Z,1.4
2023-02-05T13:44:59.000Z,7
2023-02-05T13:46:16.000Z,2.7
2023-02-05T13:47:32.000Z,8.6
2023-02-05T13:48:48.000Z,1.4
2023-02-05T13:50:03.000Z,3.9
2023-02-05T13:51:20.000Z,3.4
2023-02-05T13:52:36.000Z,1.2
2023-02-05T13:53:52.000Z,4.8
2023-02-05T13:55:08.000Z,6.7
2023-02-05T13:56:25.000Z,4.4
2023-02-05T13:57:41.000Z,8
2023-02-05T13:58:57.000Z,1.9
2023-02-05T14:00:13.000Z,2.5
2023-02-05T14:01:30.000Z,12.6
2023-02-05T14:02:46.000Z,9.5
2023-02-05T14:04:02.000Z,5.1
2023-02-05T14:05:18.000Z,3.1
2023-02-05T14:06:33.000Z,1.7
2023-02-05T14:07:50.000Z,1
2023-02-05T14:09:06.000Z,3.6
2023-02-05T14:10:22.000Z,8.9
2023-02-05T14:11:38.000Z,3.4
2023-02-05T14:12:55.000Z,3.6
2023-02-05T14:14:11.000Z,3.3
2023-02-05T14:15:27.000Z,7.7
2023-02-05T14:16:43.000Z,1.4
2023-02-05T14:18:00.000Z,5.5
2023-02-05T14:19:16.000Z,14.5
2023-02-05T14:20:32.000Z,12.7
2023-02-05T14:21:48.000Z,1.5
2023-02-05T14:23:04.000Z,8
2023-02-05T14:24:20.000Z,2.7
2023-02-05T14:25:36.000Z,2.9
2023-02-05T14:26:52.000Z,3.4
2023-02-05T14:28:08.000Z,3.3
2023-02-05T14:29:25.000Z,6.1
2023-02-05T14:30:41.000Z,1.6
2023-02-05T14:31:57.000Z,12
2023-02-05T14:33:13.000Z,5.3
2023-02-05T14:34:30.000Z,3.8
2023-02-05T14:35:45.000Z,5.4
2023-02-05T14:37:00.000Z,6.5
2023-02-05T14:38:16.000Z,2.6
2023-02-05T14:39:32.000Z,10.8
2023-02-05T14:40:47.000Z,6.4
2023-02-05T14:42:03.000Z,3.6
2023-02-05T14:43:19.000Z,4.8
2023-02-05T14:44:36.000Z,4.3
2023-02-05T14:45:52.000Z,7.6
2023-02-05T14:47:08.000Z,5
2023-02-05T14:48:24.000Z,5.6
2023-02-05T14:49:41.000Z,12.9
2023-02-05T14:50:57.000Z,5.5
2023-02-05T14:52:13.000Z,5.8
2023-02-05T14:53:29.000Z,3.4
2023-02-05T14:54:45.000Z,5.2
2023-02-05T14:56:02.000Z,4
2023-02-05T14:57:17.000Z,5.9
2023-02-05T14:58:33.000Z,6
2023-02-05T14:59:49.000Z,3
2023-02-05T15:01:06.000Z,0.5
2023-02-05T15:02:22.000Z,15.3
2023-02-05T15:03:38.000Z,3.3
2023-02-05T15:04:54.000Z,10.2
2023-02-05T15:06:11.000Z,14.9
2023-02-05T15:07:27.000Z,7.8
2023-02-05T15:08:43.000Z,9.2
2023-02-05T15:09:59.000Z,9.9
2023-02-05T15:11:16.000Z,4.3
2023-02-05T15:12:32.000Z,4.6
2023-02-05T15:13:47.000Z,14.8
2023-02-05T15:15:03.000Z,7.3
2023-02-05T15:16:19.000Z,7.8
2023-02-05T15:17:36.000Z,18.2
2023-02-05T15:18:52.000Z,1.7
2023-02-05T15:20:08.000Z,4.7
2023-02-05T15:21:24.000Z,3.6
2023-02-05T15:22:41.000Z,9.6
2023-02-05T15:23:57.000Z,8.3
2023-02-05T15:25:13.000Z,11.1
2023-02-05T15:26:29.000Z,13.5
2023-02-05T15:27:46.000Z,13.5
2023-02-05T15:29:02.000Z,7.5
2023-02-05T15:30:17.000Z,8.2
2023-02-05T15:31:33.000Z,9
2023-02-05T15:32:50.000Z,10.2
2023-02-05T15:34:06.000Z,6.1
2023-02-05T15:35:22.000Z,2.5
2023-02-05T15:36:38.000Z,10.8
2023-02-05T15:37:54.000Z,9.6
2023-02-05T15:39:11.000Z,11.4
2023-02-05T15:40:27.000Z,10.4
2023-02-05T15:41:43.000Z,21.5
2023-02-05T15:42:59.000Z,8.8
2023-02-05T15:44:16.000Z,7.8
2023-02-05T15:45:32.000Z,8.1
2023-02-05T15:46:47.000Z,3
2023-02-05T15:48:02.000Z,11.9
2023-02-05T15:49:18.000Z,3.9
2023-02-05T15:50:33.000Z,8.9
2023-02-05T15:51:48.000Z,12
2023-02-05T15:53:04.000Z,5.3
2023-02-05T15:54:21.000Z,3.9
2023-02-05T15:55:37.000Z,4.8
2023-02-05T15:56:53.000Z,18
2023-02-05T15:58:09.000Z,2
2023-02-05T15:59:26.000Z,6.9
2023-02-05T16:00:42.000Z,8.1
2023-02-05T16:01:58.000Z,13.5
2023-02-05T16:03:14.000Z,18.7
2023-02-05T16:04:31.000Z,5.7
2023-02-05T16:05:47.000Z,16.5
2023-02-05T16:07:03.000Z,7.4
2023-02-05T16:08:18.000Z,8.2
2023-02-05T16:09:34.000Z,5.9
2023-02-05T16:10:51.000Z,5.9
2023-02-05T16:12:07.000Z,14.2
2023-02-05T16:13:23.000Z,10.8
2023-02-05T16:14:39.000Z,18.1
2023-02-05T16:15:56.000Z,9
2023-02-05T16:17:11.000Z,5.5
2023-02-05T16:18:26.000Z,13.9
2023-02-05T16:19:42.000Z,10.8
2023-02-05T16:20:58.000Z,4.8
2023-02-05T16:22:13.000Z,14
2023-02-05T16:23:29.000Z,11.5
2023-02-05T16:24:45.000Z,7.7
2023-02-05T16:26:02.000Z,9.9
2023-02-05T16:27:18.000Z,5.3
2023-02-05T16:28:34.000Z,11
2023-02-05T16:29:50.000Z,9.4
2023-02-05T16:31:07.000Z,16.7
2023-02-05T16:32:23.000Z,7.3
2023-02-05T16:33:39.000Z,20.6
2023-02-05T16:34:55.000Z,16.3
2023-02-05T16:36:11.000Z,7.6
2023-02-05T16:37:28.000Z,4.7
2023-02-05T16:38:43.000Z,11.2
2023-02-05T16:39:59.000Z,9.4
2023-02-05T16:41:15.000Z,7
2023-02-05T16:42:32.000Z,3.5
2023-02-05T16:43:48.000Z,6.8
2023-02-05T16:45:04.000Z,4.3
2023-02-05T16:46:20.000Z,16.6
2023-02-05T16:47:37.000Z,8.3
2023-02-05T16:48:53.000Z,14.6
2023-02-05T16:50:09.000Z,7.1
2023-02-05T16:51:25.000Z,13.6
2023-02-05T16:52:42.000Z,13.6
2023-02-05T16:53:58.000Z,8.7
2023-02-05T16:55:13.000Z,9.7
2023-02-05T16:56:29.000Z,12.7
2023-02-05T16:57:45.000Z,8.9
2023-02-05T16:59:02.000Z,5.1
2023-02-05T17:00:18.000Z,4.1
2023-02-05T17:01:34.000Z,2.5
2023-02-05T17:02:50.000Z,17.8
2023-02-05T17:04:07.000Z,10.3
2023-02-05T17:05:23.000Z,12.3
2023-02-05T17:06:39.000Z,9.3
2023-02-05T17:07:55.000Z,5.8
2023-02-05T17:09:12.000Z,10.1
2023-02-05T17:10:28.000Z,11.5
2023-02-05T17:11:43.000Z,11.9
2023-02-05T17:12:58.000Z,3
2023-02-05T17:14:14.000Z,12.5
2023-02-05T17:15:30.000Z,4.2
2023-02-05T17:16:45.000Z,20.4
2023-02-05T17:18:01.000Z,14.5
2023-02-05T17:19:18.000Z,7.8
2023-02-05T17:20:34.000Z,12.2
2023-02-05T17:21:50.000Z,9.2